עמוד ראשי
METAR-TAF:

METAR-TAF

שדות תעופה :

Wink, טקסס, ארצות הברית

קו רוחב: 31-46-47N, קו אורך: 103-12-05W, גובה: 860מטר

תצפית מזג אוויר נוכחית

הדו"ח נערך לפני 30דקות, בשעה 11:53 UTC
רוח 7קשר מכיוון מזרח/דרום-מזרח
טמפרטורת 23 צלסיוס
לחות 65%
לחץ 1022 hPa
שמיים נקיים

METAR: KINK 251153Z AUTO 11007KT CLR 23/16 A3018 RMK AO2 SLP171 7//// T02280161 10267 20228 53002 $

זמן: 07:23 (12:23 UTC)

תחזית

הדו"ח נערך לפני 1 שעות ו 3דקות, בשעה 11:20 UTC
תחזית בתוקף מ 25 ב 12 UTC עד 26 ב 12 UTC
רוח 6קשר מכיוון דרום-מזרח
ראות: 10קילומטר
שמיים נקיים

TAF: KINK 251120Z 2512/2612 13006KT P6SM SKC

תצפיות ותחזיות מזג אוויר לגבי יותר מ- 4,000 שדות תעופה ברחבי העולם. דוחות METAR ו- TAF.

התחנות הזמינות מסומנות בנקודות צהובות ואדומות על גבי המפה.

העבר את העכבר לנקודה הצבעונית על מנת לראות את שם התחנה.

לאחר מכן, לחץ כדי לראות את תוכן ואת תחזיות מזג האוויר.

כדי לשנות את המפה: לחץ על הכפתורים הירוקים עם הפלוס השחור כדי להתקרב; על הכפתור הירוק עם המקף כדי להתרחק; או בחיצים הירוקים למפות סמוכות.


METAR-TAF: